createdAt,value
2022-08-19T00:01:52.846Z,100571.50
2022-08-19T00:04:25.336Z,100513.81
2022-08-19T00:06:52.375Z,100579.00
2022-08-19T00:09:21.324Z,100533.13
2022-08-19T00:11:48.123Z,100559.88
2022-08-19T00:14:17.665Z,100420.22
2022-08-19T00:16:46.486Z,100498.59
2022-08-19T00:19:13.391Z,100550.88
2022-08-19T00:21:40.760Z,100546.72
2022-08-19T00:24:12.199Z,100531.44
2022-08-19T00:26:39.647Z,100523.78
2022-08-19T00:29:08.240Z,100511.22
2022-08-19T00:31:35.169Z,100534.22
2022-08-19T00:34:01.806Z,100562.63
2022-08-19T00:36:29.668Z,100571.13
2022-08-19T00:38:56.650Z,100520.56
2022-08-19T00:41:24.990Z,100599.44
2022-08-19T00:44:26.867Z,100596.75
2022-08-19T00:46:58.143Z,100598.47
2022-08-19T00:49:28.031Z,100614.03
2022-08-19T00:52:04.127Z,100557.28
2022-08-19T00:54:32.581Z,100537.38
2022-08-19T00:57:00.719Z,100562.31
2022-08-19T00:59:53.375Z,100611.25
2022-08-19T01:02:17.804Z,100574.25
2022-08-19T01:04:44.361Z,100523.66
2022-08-19T01:07:15.042Z,100552.47
2022-08-19T01:09:44.272Z,100543.91
2022-08-19T01:12:10.912Z,100471.47
2022-08-19T01:14:40.899Z,100524.19
2022-08-19T01:17:11.098Z,100382.81
2022-08-19T01:19:43.398Z,100535.81
2022-08-19T01:22:33.830Z,100540.84
2022-08-19T01:25:01.791Z,100550.06
2022-08-19T01:27:43.307Z,100548.81
2022-08-19T01:30:14.128Z,100499.88
2022-08-19T01:32:44.498Z,100530.16
2022-08-19T01:35:13.499Z,100516.38
2022-08-19T01:38:01.910Z,100517.63
2022-08-19T01:40:34.626Z,100507.69
2022-08-19T01:43:01.742Z,100513.28
2022-08-19T01:45:30.683Z,100535.44
2022-08-19T01:48:02.378Z,100537.53
2022-08-19T01:50:33.621Z,100395.03
2022-08-19T01:53:05.965Z,100527.50
2022-08-19T01:55:41.193Z,100505.53
2022-08-19T01:58:13.315Z,100521.28
2022-08-19T02:00:40.117Z,100510.66
2022-08-19T02:03:07.583Z,100512.06
2022-08-19T02:05:34.227Z,100506.22
2022-08-19T02:08:00.799Z,100488.84
2022-08-19T02:10:27.406Z,100516.25
2022-08-19T02:12:54.270Z,100461.09
2022-08-19T02:15:22.728Z,100420.41
2022-08-19T02:17:49.415Z,100510.00
2022-08-19T02:20:17.047Z,100483.44
2022-08-19T02:22:44.259Z,100489.81
2022-08-19T02:25:12.871Z,100402.97
2022-08-19T02:27:40.202Z,100485.91
2022-08-19T02:30:09.275Z,100485.28
2022-08-19T02:32:44.407Z,100490.25
2022-08-19T02:35:13.427Z,100488.53
2022-08-19T02:37:59.981Z,100482.94
2022-08-19T02:40:27.269Z,100483.56
2022-08-19T02:42:53.991Z,100480.41
2022-08-19T02:45:21.197Z,100469.13
2022-08-19T02:47:48.093Z,100408.69
2022-08-19T02:50:15.640Z,100462.06
2022-08-19T02:52:42.448Z,100455.78
2022-08-19T02:55:09.863Z,100410.66
2022-08-19T02:57:36.827Z,100405.25
2022-08-19T03:00:07.623Z,100456.66
2022-08-19T03:02:34.275Z,100414.03
2022-08-19T03:05:00.920Z,100415.66
2022-08-19T03:07:27.464Z,100446.09
2022-08-19T03:09:54.109Z,100448.28
2022-08-19T03:12:20.645Z,100467.53
2022-08-19T03:14:47.592Z,100380.47
2022-08-19T03:17:14.515Z,100483.88
2022-08-19T03:19:41.307Z,100466.69
2022-08-19T03:22:08.954Z,100482.44
2022-08-19T03:24:36.214Z,100500.34
2022-08-19T03:27:03.732Z,100447.59
2022-08-19T03:29:32.602Z,100474.72
2022-08-19T03:32:01.951Z,100465.41
2022-08-19T03:34:34.289Z,100474.28
2022-08-19T03:37:06.259Z,100442.97
2022-08-19T03:39:32.927Z,100407.88
2022-08-19T03:42:32.680Z,100448.72
2022-08-19T03:44:49.961Z,100450.75
2022-08-19T03:47:17.620Z,100416.53
2022-08-19T03:49:45.356Z,100363.75
2022-08-19T03:52:11.944Z,100435.41
2022-08-19T03:54:39.636Z,100440.88
2022-08-19T03:57:07.023Z,100420.75
2022-08-19T03:59:36.254Z,100465.13
2022-08-19T04:02:10.074Z,100449.34
2022-08-19T04:04:41.239Z,100451.41
2022-08-19T04:07:08.131Z,100439.38
2022-08-19T04:09:37.618Z,100401.00
2022-08-19T04:12:06.608Z,100419.41
2022-08-19T04:14:34.752Z,100378.97
2022-08-19T04:17:04.458Z,100439.91
2022-08-19T04:19:32.308Z,100367.47
2022-08-19T04:21:59.602Z,100436.66
2022-08-19T04:24:26.905Z,100445.03
2022-08-19T04:26:53.622Z,100416.28
2022-08-19T04:29:26.348Z,100477.00
2022-08-19T04:31:54.878Z,100456.66
2022-08-19T04:34:24.318Z,100458.94
2022-08-19T04:36:52.984Z,100478.66
2022-08-19T04:39:47.664Z,100481.16
2022-08-19T04:42:34.339Z,100252.81
2022-08-19T04:45:01.121Z,100443.13
2022-08-19T04:47:48.060Z,100427.41
2022-08-19T04:50:14.822Z,100424.25
2022-08-19T04:52:44.268Z,100474.78
2022-08-19T04:55:11.949Z,100467.72
2022-08-19T04:57:41.196Z,100418.47
2022-08-19T05:00:11.768Z,100482.47
2022-08-19T05:02:39.233Z,100479.09
2022-08-19T05:05:07.569Z,100466.56
2022-08-19T05:07:34.689Z,100432.72
2022-08-19T05:10:01.302Z,100312.78
2022-08-19T05:12:29.805Z,100339.25
2022-08-19T05:14:58.215Z,100433.50
2022-08-19T05:17:28.768Z,100447.81
2022-08-19T05:20:15.630Z,100451.78
2022-08-19T05:22:43.156Z,100442.88
2022-08-19T05:25:13.995Z,100415.69
2022-08-19T05:27:42.892Z,100449.63
2022-08-19T05:30:11.225Z,100418.13
2022-08-19T05:32:38.178Z,100444.25
2022-08-19T05:35:06.525Z,100433.06
2022-08-19T05:39:59.803Z,100486.91
2022-08-19T05:42:27.587Z,100467.44
2022-08-19T05:44:54.264Z,100463.69
2022-08-19T05:47:21.305Z,100426.56
2022-08-19T05:49:50.750Z,100460.38
2022-08-19T05:52:18.819Z,100453.44
2022-08-19T05:54:50.894Z,100383.31
2022-08-19T05:57:19.237Z,100340.09
2022-08-19T05:59:48.663Z,100446.88
2022-08-19T06:02:15.853Z,100505.25
2022-08-19T06:04:43.876Z,100471.19
2022-08-19T06:07:12.150Z,100502.19
2022-08-19T06:09:39.633Z,100509.31
2022-08-19T06:12:06.793Z,100514.72
2022-08-19T06:14:40.274Z,100503.50
2022-08-19T06:17:09.261Z,100508.88
2022-08-19T06:19:40.912Z,100505.22
2022-08-19T06:22:09.002Z,100529.09
2022-08-19T06:24:36.443Z,100483.97
2022-08-19T06:27:06.523Z,100498.28
2022-08-19T06:29:34.419Z,100552.22
2022-08-19T06:32:03.460Z,100528.63
2022-08-19T06:34:33.225Z,100513.25
2022-08-19T06:37:04.255Z,100555.22
2022-08-19T06:39:35.718Z,100573.47
2022-08-19T06:42:07.156Z,100560.59
2022-08-19T06:44:42.427Z,100571.78
2022-08-19T06:47:14.783Z,100535.19
2022-08-19T06:49:42.300Z,100586.56
2022-08-19T06:52:13.827Z,100558.13
2022-08-19T06:54:56.520Z,100578.91
2022-08-19T06:57:29.316Z,100567.47
2022-08-19T06:59:57.401Z,100539.44
2022-08-19T07:02:27.284Z,100525.31
2022-08-19T07:04:54.727Z,100579.72
2022-08-19T07:07:22.256Z,100540.47
2022-08-19T07:09:54.390Z,100614.19
2022-08-19T07:12:33.932Z,100615.88
2022-08-19T07:15:03.401Z,100626.66
2022-08-19T07:17:30.130Z,100618.97
2022-08-19T07:19:57.749Z,100629.34
2022-08-19T07:22:32.683Z,100631.28
2022-08-19T07:24:59.338Z,100633.72
2022-08-19T07:27:26.164Z,100630.38
2022-08-19T07:29:57.111Z,100658.84
2022-08-19T07:32:27.494Z,100598.75
2022-08-19T07:34:54.179Z,100667.69
2022-08-19T07:37:20.929Z,100585.47
2022-08-19T07:39:48.047Z,100621.00
2022-08-19T07:42:15.469Z,100654.84
2022-08-19T07:44:42.839Z,100584.59
2022-08-19T07:47:49.996Z,100616.97
2022-08-19T07:50:09.281Z,100576.31
2022-08-19T07:52:39.140Z,100646.03
2022-08-19T07:55:39.769Z,100647.88
2022-08-19T07:57:54.925Z,100651.97
2022-08-19T08:00:23.996Z,100642.66
2022-08-19T08:02:52.291Z,100594.59
2022-08-19T08:05:43.377Z,100672.13
2022-08-19T08:08:29.539Z,100658.72
2022-08-19T08:10:57.098Z,100616.09
2022-08-19T08:13:25.195Z,100609.28
2022-08-19T08:15:53.243Z,100687.72
2022-08-19T08:18:23.312Z,100675.66
2022-08-19T08:20:55.584Z,100600.69
2022-08-19T08:23:27.916Z,100661.31
2022-08-19T08:25:57.651Z,100661.53
2022-08-19T08:28:26.173Z,100635.75
2022-08-19T08:30:56.626Z,100673.41
2022-08-19T08:33:29.937Z,100672.41
2022-08-19T08:36:03.744Z,100663.28
2022-08-19T08:38:38.771Z,100659.91
2022-08-19T08:41:45.690Z,100661.09
2022-08-19T08:44:37.394Z,100628.25
2022-08-19T08:47:05.841Z,100659.19
2022-08-19T08:49:54.936Z,100667.19
2022-08-19T08:52:31.994Z,100663.16
2022-08-19T08:55:10.274Z,100676.19
2022-08-19T08:58:27.519Z,100656.38
2022-08-19T09:00:54.395Z,100675.63
2022-08-19T09:03:24.467Z,100646.81
2022-08-19T09:06:03.175Z,100690.25
2022-08-19T09:08:48.547Z,100686.53
2022-08-19T09:11:42.365Z,100682.56
2022-08-19T09:14:49.682Z,100661.41
2022-08-19T09:17:16.718Z,100681.56
2022-08-19T09:19:52.975Z,100690.44
2022-08-19T09:22:25.403Z,100666.16
2022-08-19T09:24:53.489Z,100671.19
2022-08-19T09:27:21.807Z,100670.00
2022-08-19T09:29:49.884Z,100695.53
2022-08-19T09:32:26.795Z,100703.81
2022-08-19T09:34:55.704Z,100650.81
2022-08-19T09:37:23.446Z,100629.78
2022-08-19T09:39:52.231Z,100703.47
2022-08-19T09:42:29.758Z,100706.88
2022-08-19T09:44:57.144Z,100694.13
2022-08-19T09:47:26.929Z,100707.03
2022-08-19T09:49:53.637Z,100702.66
2022-08-19T09:52:20.755Z,100712.44
2022-08-19T09:54:51.962Z,100696.41
2022-08-19T09:57:18.927Z,100703.09
2022-08-19T09:59:45.997Z,100688.63
2022-08-19T10:02:13.222Z,100692.69
2022-08-19T10:04:58.584Z,100685.00
2022-08-19T10:07:29.012Z,100685.72
2022-08-19T10:10:07.172Z,100679.38
2022-08-19T10:12:35.339Z,100666.78
2022-08-19T10:15:02.519Z,100693.56
2022-08-19T10:17:33.521Z,100665.75
2022-08-19T10:20:00.982Z,100678.91
2022-08-19T10:22:27.713Z,100689.91
2022-08-19T10:24:55.197Z,100662.41
2022-08-19T10:27:22.153Z,100693.44
2022-08-19T10:29:49.057Z,100696.44
2022-08-19T10:32:15.689Z,100678.47
2022-08-19T10:34:48.024Z,100670.97
2022-08-19T10:37:23.976Z,100671.91
2022-08-19T10:39:58.046Z,100681.00
2022-08-19T10:42:24.755Z,100667.66
2022-08-19T10:44:51.962Z,100675.66
2022-08-19T10:47:25.781Z,100662.16
2022-08-19T10:50:15.034Z,100668.19
2022-08-19T10:52:50.159Z,100648.16
2022-08-19T10:55:39.274Z,100646.50
2022-08-19T10:58:11.559Z,100636.03
2022-08-19T11:00:38.149Z,100633.22
2022-08-19T11:03:04.888Z,100628.88
2022-08-19T11:05:31.529Z,100625.66
2022-08-19T11:08:22.538Z,100639.34
2022-08-19T11:10:56.318Z,100593.47
2022-08-19T11:13:24.186Z,100610.81
2022-08-19T11:16:06.532Z,100645.31
2022-08-19T11:18:39.172Z,100644.75
2022-08-19T11:21:18.242Z,100594.09
2022-08-19T11:23:45.753Z,100639.31
2022-08-19T11:26:12.837Z,100637.41
2022-08-19T11:28:40.335Z,100613.78
2022-08-19T11:31:18.433Z,100570.72
2022-08-19T11:33:47.197Z,100634.78
2022-08-19T11:36:15.227Z,100627.88
2022-08-19T11:38:42.652Z,100641.59
2022-08-19T11:41:09.355Z,100624.22
2022-08-19T11:43:37.748Z,100650.13
2022-08-19T11:46:14.038Z,100641.22
2022-08-19T11:48:40.631Z,100624.06
2022-08-19T11:51:17.542Z,100601.50
2022-08-19T11:53:44.111Z,100621.03
2022-08-19T11:56:10.953Z,100639.22
2022-08-19T11:58:37.967Z,100626.19
2022-08-19T12:01:09.280Z,100603.72
2022-08-19T12:03:36.499Z,100623.22
2022-08-19T12:06:13.653Z,100541.47
2022-08-19T12:08:44.560Z,100621.88
2022-08-19T12:11:14.597Z,100625.00
2022-08-19T12:13:45.286Z,100619.47
2022-08-19T12:16:15.944Z,100623.69
2022-08-19T12:18:51.879Z,100573.47
2022-08-19T12:21:26.025Z,100618.44
2022-08-19T12:23:55.701Z,100605.03
2022-08-19T12:26:23.131Z,100607.19
2022-08-19T12:28:49.772Z,100587.34
2022-08-19T12:31:16.579Z,100584.63
2022-08-19T12:33:43.349Z,100584.53
2022-08-19T12:36:13.283Z,100612.19
2022-08-19T12:38:40.881Z,100610.03
2022-08-19T12:41:10.063Z,100605.84
2022-08-19T12:43:38.641Z,100607.16
2022-08-19T12:46:07.052Z,100617.72
2022-08-19T12:48:38.413Z,100604.44
2022-08-19T12:51:16.179Z,100602.47
2022-08-19T12:53:43.162Z,100613.97
2022-08-19T12:56:12.808Z,100602.69
2022-08-19T12:58:39.694Z,100576.78
2022-08-19T13:01:11.800Z,100590.06
2022-08-19T13:03:40.786Z,100583.06
2022-08-19T13:06:08.867Z,100606.31
2022-08-19T13:08:36.800Z,100614.97
2022-08-19T13:11:15.138Z,100555.78
2022-08-19T13:13:44.203Z,100580.84
2022-08-19T13:16:12.274Z,100606.88
2022-08-19T13:18:40.442Z,100603.22
2022-08-19T13:21:09.603Z,100613.41
2022-08-19T13:23:36.877Z,100612.38
2022-08-19T13:26:07.632Z,100542.06
2022-08-19T13:28:53.809Z,100609.38
2022-08-19T13:31:42.917Z,100612.03
2022-08-19T13:34:10.412Z,100604.09
2022-08-19T13:36:38.635Z,100601.34
2022-08-19T13:39:07.004Z,100564.38
2022-08-19T13:41:34.725Z,100568.84
2022-08-19T13:44:02.707Z,100565.88
2022-08-19T13:46:30.164Z,100593.13
2022-08-19T13:48:57.394Z,100610.06
2022-08-19T13:51:24.583Z,100597.41
2022-08-19T13:53:51.634Z,100604.34
2022-08-19T13:56:24.141Z,100612.06
2022-08-19T13:58:53.023Z,100613.56
2022-08-19T14:01:25.010Z,100617.84
2022-08-19T14:03:52.128Z,100593.97
2022-08-19T14:06:19.412Z,100612.06
2022-08-19T14:08:46.883Z,100627.06
2022-08-19T14:11:13.566Z,100590.22
2022-08-19T14:13:40.408Z,100617.66
2022-08-19T14:16:11.947Z,100620.22
2022-08-19T14:18:39.525Z,100599.19
2022-08-19T14:21:06.550Z,100545.25
2022-08-19T14:23:34.257Z,100595.41
2022-08-19T14:26:10.165Z,100574.75
2022-08-19T14:28:36.848Z,100600.13
2022-08-19T14:31:03.534Z,100605.28
2022-08-19T14:33:30.618Z,100601.31
2022-08-19T14:35:59.716Z,100607.81
2022-08-19T14:38:31.202Z,100603.19
2022-08-19T14:41:28.202Z,100607.16
2022-08-19T14:43:55.345Z,100607.06
2022-08-19T14:46:26.263Z,100612.22
2022-08-19T14:48:56.342Z,100620.13
2022-08-19T14:51:27.665Z,100603.47
2022-08-19T14:53:54.197Z,100619.50
2022-08-19T14:56:24.200Z,100599.25
2022-08-19T14:58:53.587Z,100618.63
2022-08-19T15:01:23.292Z,100551.09
2022-08-19T15:03:50.893Z,100549.34
2022-08-19T15:06:17.657Z,100624.03
2022-08-19T15:08:45.841Z,100598.59
2022-08-19T15:11:16.100Z,100609.00
2022-08-19T15:13:45.044Z,100614.53
2022-08-19T15:16:17.721Z,100591.28
2022-08-19T15:18:45.679Z,100608.91
2022-08-19T15:21:14.277Z,100611.63
2022-08-19T15:23:41.852Z,100581.09
2022-08-19T15:26:14.386Z,100619.66
2022-08-19T15:28:43.478Z,100603.31
2022-08-19T15:31:25.096Z,100608.50
2022-08-19T15:33:58.142Z,100613.47
2022-08-19T15:36:26.244Z,100595.09
2022-08-19T15:38:53.287Z,100535.94
2022-08-19T15:41:26.862Z,100621.56
2022-08-19T15:43:59.643Z,100626.41
2022-08-19T15:46:29.789Z,100587.06
2022-08-19T15:48:59.602Z,100610.50
2022-08-19T15:51:30.491Z,100623.88
2022-08-19T15:53:58.526Z,100615.81
2022-08-19T15:56:27.501Z,100627.03
2022-08-19T15:59:12.889Z,100593.84
2022-08-19T16:01:58.483Z,100634.47
2022-08-19T16:04:43.802Z,100603.31
2022-08-19T16:07:12.654Z,100629.31
2022-08-19T16:09:39.258Z,100634.31
2022-08-19T16:12:06.334Z,100576.47
2022-08-19T16:14:35.238Z,100647.81
2022-08-19T16:17:02.638Z,100635.75
2022-08-19T16:19:29.294Z,100635.75
2022-08-19T16:21:57.235Z,100625.34
2022-08-19T16:24:26.274Z,100647.81
2022-08-19T16:26:53.068Z,100632.34
2022-08-19T16:29:33.212Z,100618.06
2022-08-19T16:32:06.672Z,100569.00
2022-08-19T16:34:33.713Z,100628.34
2022-08-19T16:37:00.883Z,100645.47
2022-08-19T16:39:27.474Z,100650.56
2022-08-19T16:41:54.107Z,100639.75
2022-08-19T16:44:21.247Z,100637.81
2022-08-19T16:46:57.284Z,100642.47
2022-08-19T16:49:53.241Z,100638.09
2022-08-19T16:52:17.781Z,100634.97
2022-08-19T16:54:44.822Z,100637.19
2022-08-19T16:57:12.388Z,100634.69
2022-08-19T16:59:43.671Z,100630.88
2022-08-19T17:02:19.540Z,100616.31
2022-08-19T17:04:55.728Z,100644.91
2022-08-19T17:07:25.525Z,100650.03
2022-08-19T17:09:53.064Z,100596.28
2022-08-19T17:12:20.952Z,100646.81
2022-08-19T17:14:47.712Z,100627.03
2022-08-19T17:17:15.457Z,100657.63
2022-08-19T17:19:44.584Z,100671.19
2022-08-19T17:22:12.909Z,100657.16
2022-08-19T17:24:40.673Z,100669.84
2022-08-19T17:27:07.722Z,100641.22
2022-08-19T17:29:36.037Z,100662.59
2022-08-19T17:32:03.161Z,100664.16
2022-08-19T17:34:29.913Z,100654.69
2022-08-19T17:36:57.022Z,100668.16
2022-08-19T17:39:23.985Z,100671.75
2022-08-19T17:41:52.868Z,100677.31
2022-08-19T17:44:20.768Z,100667.63
2022-08-19T17:46:48.303Z,100665.16
2022-08-19T17:49:15.263Z,100593.75
2022-08-19T17:51:47.076Z,100679.34
2022-08-19T17:54:18.754Z,100657.38
2022-08-19T17:56:46.336Z,100683.16
2022-08-19T17:59:14.613Z,100675.81
2022-08-19T18:01:53.138Z,100652.63
2022-08-19T18:04:22.417Z,100684.78
2022-08-19T18:06:53.638Z,100670.25
2022-08-19T18:09:42.509Z,100682.56
2022-08-19T18:12:12.381Z,100690.72
2022-08-19T18:14:42.593Z,100680.06
2022-08-19T18:17:15.197Z,100692.94
2022-08-19T18:19:43.952Z,100691.78
2022-08-19T18:22:29.922Z,100697.50
2022-08-19T18:24:58.499Z,100705.06
2022-08-19T18:27:27.086Z,100707.66
2022-08-19T18:29:58.012Z,100701.50
2022-08-19T18:32:26.707Z,100675.38
2022-08-19T18:34:54.132Z,100704.81
2022-08-19T18:37:21.268Z,100692.88
2022-08-19T18:40:07.874Z,100668.50
2022-08-19T18:42:53.057Z,100687.44
2022-08-19T18:45:38.352Z,100692.75
2022-08-19T18:48:27.716Z,100668.06
2022-08-19T18:51:00.173Z,100699.41
2022-08-19T18:53:29.770Z,100705.91
2022-08-19T18:55:57.802Z,100703.63
2022-08-19T18:58:34.890Z,100715.44
2022-08-19T19:01:13.095Z,100707.53
2022-08-19T19:03:45.291Z,100707.03
2022-08-19T19:06:14.739Z,100713.09
2022-08-19T19:08:41.513Z,100719.25
2022-08-19T19:11:09.197Z,100719.25
2022-08-19T19:13:39.745Z,100709.03
2022-08-19T19:16:12.325Z,100697.31
2022-08-19T19:18:39.093Z,100723.66
2022-08-19T19:21:08.444Z,100738.22
2022-08-19T19:23:40.886Z,100712.66
2022-08-19T19:26:10.555Z,100731.22
2022-08-19T19:28:43.386Z,100735.00
2022-08-19T19:31:14.603Z,100744.50
2022-08-19T19:33:42.431Z,100750.41
2022-08-19T19:36:09.357Z,100706.41
2022-08-19T19:38:36.516Z,100691.06
2022-08-19T19:41:04.223Z,100726.59
2022-08-19T19:43:34.882Z,100731.06
2022-08-19T19:46:08.091Z,100721.88
2022-08-19T19:48:35.538Z,100714.91
2022-08-19T19:51:03.636Z,100757.69
2022-08-19T19:53:30.396Z,100731.56
2022-08-19T19:56:02.207Z,100723.25
2022-08-19T19:58:31.113Z,100750.72
2022-08-19T20:00:59.279Z,100768.66
2022-08-19T20:03:27.388Z,100769.44
2022-08-19T20:05:59.211Z,100777.81
2022-08-19T20:08:48.147Z,100757.66
2022-08-19T20:11:33.233Z,100700.69
2022-08-19T20:14:02.643Z,100762.50
2022-08-19T20:16:31.136Z,100775.03
2022-08-19T20:19:00.949Z,100722.78
2022-08-19T20:21:32.195Z,100713.28
2022-08-19T20:24:09.324Z,100749.38
2022-08-19T20:26:37.316Z,100773.97
2022-08-19T20:29:13.473Z,100769.69
2022-08-19T20:31:57.282Z,100775.50
2022-08-19T20:34:24.714Z,100762.34
2022-08-19T20:36:51.296Z,100676.25
2022-08-19T20:39:17.880Z,100778.22
2022-08-19T20:41:45.137Z,100726.03
2022-08-19T20:44:12.028Z,100757.56
2022-08-19T20:46:39.079Z,100769.31
2022-08-19T20:49:05.918Z,100763.56
2022-08-19T20:51:34.688Z,100768.19
2022-08-19T20:54:02.410Z,100753.25
2022-08-19T20:56:29.571Z,100738.41
2022-08-19T20:59:00.080Z,100752.13
2022-08-19T21:01:27.106Z,100727.97
2022-08-19T21:03:53.713Z,100707.38
2022-08-19T21:06:23.164Z,100765.69
2022-08-19T21:08:49.979Z,100748.03
2022-08-19T21:11:20.755Z,100730.84
2022-08-19T21:13:48.587Z,100766.88
2022-08-19T21:16:16.113Z,100755.53
2022-08-19T21:18:42.777Z,100771.34
2022-08-19T21:21:09.537Z,100755.59
2022-08-19T21:23:36.288Z,100765.38
2022-08-19T21:26:03.043Z,100758.59
2022-08-19T21:28:35.522Z,100759.38
2022-08-19T21:31:05.427Z,100758.75
2022-08-19T21:33:33.118Z,100737.13
2022-08-19T21:36:00.462Z,100761.94
2022-08-19T21:38:27.747Z,100707.31
2022-08-19T21:40:55.934Z,100770.66
2022-08-19T21:43:24.127Z,100780.41
2022-08-19T21:45:51.212Z,100784.31
2022-08-19T21:48:18.677Z,100772.31
2022-08-19T21:50:48.199Z,100776.09
2022-08-19T21:53:19.070Z,100771.94
2022-08-19T21:55:52.864Z,100789.28
2022-08-19T21:58:19.967Z,100794.50
2022-08-19T22:00:55.433Z,100739.56
2022-08-19T22:03:22.109Z,100716.28
2022-08-19T22:05:48.776Z,100784.31
2022-08-19T22:08:15.444Z,100777.38
2022-08-19T22:10:42.053Z,100788.75
2022-08-19T22:13:09.762Z,100779.84
2022-08-19T22:15:36.428Z,100776.31
2022-08-19T22:18:03.287Z,100779.84
2022-08-19T22:20:34.380Z,100756.97
2022-08-19T22:23:03.680Z,100796.81
2022-08-19T22:25:33.479Z,100780.63
2022-08-19T22:28:02.051Z,100768.63
2022-08-19T22:30:32.385Z,100685.97
2022-08-19T22:33:03.837Z,100791.91
2022-08-19T22:35:32.966Z,100771.59
2022-08-19T22:38:00.441Z,100809.59
2022-08-19T22:40:29.685Z,100801.78
2022-08-19T22:43:06.172Z,100768.84
2022-08-19T22:45:33.563Z,100815.78
2022-08-19T22:48:00.249Z,100817.59
2022-08-19T22:50:26.816Z,100809.63
2022-08-19T22:53:00.672Z,100814.69
2022-08-19T22:55:28.807Z,100814.34
2022-08-19T22:57:56.266Z,100779.16
2022-08-19T23:00:26.904Z,100816.94
2022-08-19T23:02:55.163Z,100784.59
2022-08-19T23:05:25.120Z,100806.00
2022-08-19T23:07:52.342Z,100761.63
2022-08-19T23:10:27.093Z,100813.53
2022-08-19T23:12:56.807Z,100780.03
2022-08-19T23:15:26.948Z,100804.69
2022-08-19T23:17:57.023Z,100816.16
2022-08-19T23:20:27.050Z,100792.28
2022-08-19T23:22:55.258Z,100817.19
2022-08-19T23:25:26.125Z,100796.22
2022-08-19T23:28:11.380Z,100789.91
2022-08-19T23:30:44.571Z,100816.03
2022-08-19T23:33:46.831Z,100813.44
2022-08-19T23:36:19.251Z,100809.34
2022-08-19T23:38:49.049Z,100791.94
2022-08-19T23:41:17.160Z,100685.06
2022-08-19T23:43:44.474Z,100807.38
2022-08-19T23:46:13.668Z,100747.25
2022-08-19T23:48:40.211Z,100812.44
2022-08-19T23:51:09.860Z,100811.34
2022-08-19T23:53:41.181Z,100816.63
2022-08-19T23:56:09.886Z,100829.75
2022-08-19T23:58:37.951Z,100824.81
